Time;durP1;ratioP1;P1;durP2;ratioP2;P2;SDS_P1;SDS_P2;PMS_P1;PMS_P2;Temp;Humidity;BMP_temperature;BMP_pressure;BME280_temperature;BME280_humidity;BME280_pressure;Samples;Min_cycle;Max_cycle;Signal;HPM_P1;HPM_P2
2023/01/20 00:01:02;;;;;;;4.28;2.85;;;-0.10;99.90;;;;;;5066097;28;20060;-91
2023/01/20 00:03:28;;;;;;;4.40;2.60;;;0.20;99.90;;;;;;5067126;28;20147;-92
2023/01/20 00:05:54;;;;;;;4.95;2.90;;;0.10;99.90;;;;;;5049990;28;20117;-91
2023/01/20 00:08:20;;;;;;;7.35;3.28;;;0.30;99.90;;;;;;5051950;28;20048;-92
2023/01/20 00:10:45;;;;;;;3.58;2.50;;;0.20;99.90;;;;;;5078788;28;20047;-92
2023/01/20 00:13:11;;;;;;;5.45;3.10;;;0.10;99.90;;;;;;5064575;28;20032;-93
2023/01/20 00:15:37;;;;;;;4.15;2.60;;;0.20;99.90;;;;;;5067309;28;20051;-92
2023/01/20 00:18:03;;;;;;;7.35;2.80;;;-0.10;99.90;;;;;;5048699;28;20032;-92
2023/01/20 00:20:29;;;;;;;4.07;2.80;;;-0.20;99.90;;;;;;5048647;28;20371;-92
2023/01/20 00:22:54;;;;;;;4.32;2.90;;;0.10;99.90;;;;;;5049397;28;20133;-92
2023/01/20 00:25:20;;;;;;;5.00;2.80;;;-0.10;99.90;;;;;;5069998;28;20048;-93
2023/01/20 00:28:02;;;;;;;5.90;3.03;;;-0.20;99.90;;;;;;5070292;28;20032;-92
2023/01/20 00:30:31;;;;;;;6.93;3.17;;;0.00;99.90;;;;;;5071287;28;20105;-92
2023/01/20 00:32:57;;;;;;;5.20;3.53;;;-0.10;99.90;;;;;;5050851;28;20318;-91
2023/01/20 00:35:22;;;;;;;6.97;4.10;;;-0.30;99.90;;;;;;5050118;28;20033;-91
2023/01/20 00:37:48;;;;;;;7.35;3.88;;;-0.10;99.90;;;;;;5048402;28;20051;-91
2023/01/20 00:40:14;;;;;;;5.97;3.97;;;0.00;99.90;;;;;;5045857;28;20087;-93
2023/01/20 00:42:39;;;;;;;8.77;4.82;;;-0.20;99.90;;;;;;5063915;28;20036;-92
2023/01/20 00:45:05;;;;;;;11.00;4.88;;;-0.10;99.90;;;;;;5045348;28;20040;-92
2023/01/20 00:47:31;;;;;;;8.90;5.03;;;0.10;99.90;;;;;;5064924;28;20048;-92
2023/01/20 00:50:00;;;;;;;9.32;5.32;;;0.10;99.90;;;;;;5046192;28;20122;-91
2023/01/20 00:52:25;;;;;;;12.52;5.47;;;-0.10;99.90;;;;;;5097608;28;20044;-91
2023/01/20 00:54:51;;;;;;;9.30;5.80;;;0.00;99.90;;;;;;5064571;28;20036;-91
2023/01/20 00:57:17;;;;;;;12.15;5.97;;;-0.10;99.90;;;;;;5049053;28;20484;-92
2023/01/20 00:59:42;;;;;;;11.45;6.13;;;-0.20;99.90;;;;;;5045707;28;20055;-92
2023/01/20 01:02:08;;;;;;;10.48;6.20;;;0.00;99.90;;;;;;5047865;28;20053;-91
2023/01/20 01:04:36;;;;;;;11.45;6.43;;;-0.20;99.90;;;;;;5046258;28;20044;-92
2023/01/20 01:07:02;;;;;;;9.48;6.07;;;-0.20;99.90;;;;;;5060725;28;20059;-91
2023/01/20 01:09:28;;;;;;;11.88;6.03;;;-0.40;99.90;;;;;;5046755;28;20122;-93
2023/01/20 01:11:53;;;;;;;9.77;5.97;;;-0.60;99.90;;;;;;5045942;28;20048;-91
2023/01/20 01:14:19;;;;;;;10.93;6.20;;;-0.50;99.90;;;;;;5045926;28;20184;-92
2023/01/20 01:16:45;;;;;;;13.10;6.20;;;-0.50;99.90;;;;;;5064375;28;20075;-92
2023/01/20 01:19:10;;;;;;;11.82;6.32;;;-0.40;99.90;;;;;;5046721;28;20505;-92
2023/01/20 01:21:36;;;;;;;10.82;6.07;;;-0.50;99.90;;;;;;5064132;28;20032;-92
2023/01/20 01:24:02;;;;;;;12.88;6.85;;;-0.50;99.90;;;;;;5047323;28;20074;-91
2023/01/20 01:26:30;;;;;;;15.82;7.90;;;0.00;99.90;;;;;;5046904;28;20461;-91
2023/01/20 01:28:56;;;;;;;17.33;8.63;;;-0.10;99.90;;;;;;5045244;28;20345;-92
2023/01/20 01:31:22;;;;;;;27.95;11.52;;;0.20;99.90;;;;;;5045775;28;20040;-92
2023/01/20 01:33:48;;;;;;;32.70;14.13;;;0.30;99.90;;;;;;5062953;28;20036;-92
2023/01/20 01:36:15;;;;;;;35.97;15.40;;;0.30;99.90;;;;;;5046206;28;20075;-92
2023/01/20 01:38:42;;;;;;;30.88;14.65;;;0.60;99.90;;;;;;5061842;28;20037;-92
2023/01/20 01:41:12;;;;;;;35.33;14.32;;;0.40;99.90;;;;;;5079301;28;20044;-92
2023/01/20 01:43:39;;;;;;;31.60;15.13;;;0.50;99.90;;;;;;5045480;28;20032;-92
2023/01/20 01:46:06;;;;;;;31.83;14.90;;;0.60;99.90;;;;;;5044178;28;20032;-93
2023/01/20 01:48:45;;;;;;;34.90;16.17;;;0.60;99.90;;;;;;5047031;28;20040;-91
2023/01/20 01:51:19;;;;;;;35.22;15.73;;;1.00;99.90;;;;;;5046048;28;20117;-93
2023/01/20 01:53:52;;;;;;;36.03;16.67;;;0.80;99.90;;;;;;5077928;28;20316;-92
2023/01/20 01:56:20;;;;;;;33.15;15.75;;;1.00;99.90;;;;;;5045117;28;20413;-91
2023/01/20 01:58:49;;;;;;;41.05;15.98;;;1.10;99.90;;;;;;5047815;28;20040;-91
2023/01/20 02:01:15;;;;;;;36.42;15.40;;;0.80;99.90;;;;;;5066318;28;20112;-92
2023/01/20 02:03:51;;;;;;;35.45;15.40;;;0.80;99.90;;;;;;5049797;28;20052;-92
2023/01/20 02:06:18;;;;;;;38.53;15.93;;;1.20;99.90;;;;;;5050487;28;20052;-91
2023/01/20 02:08:44;;;;;;;32.60;14.73;;;1.20;99.90;;;;;;5065810;28;20052;-92
2023/01/20 02:11:10;;;;;;;34.00;14.70;;;1.00;99.90;;;;;;5067044;28;20087;-92
2023/01/20 02:13:36;;;;;;;37.25;15.85;;;1.20;99.90;;;;;;5064206;28;20079;-92
2023/01/20 02:16:27;;;;;;;35.25;15.52;;;1.00;99.90;;;;;;5067996;28;20097;-91
2023/01/20 02:19:05;;;;;;;31.85;15.27;;;1.00;99.90;;;;;;5064129;28;20476;-91
2023/01/20 02:21:31;;;;;;;33.55;14.30;;;1.30;99.90;;;;;;5065362;28;20045;-92
2023/01/20 02:24:26;;;;;;;35.05;15.15;;;1.10;99.90;;;;;;5053413;28;20052;-91
2023/01/20 02:27:22;;;;;;;33.50;16.30;;;1.40;99.90;;;;;;5048615;28;20032;-92
2023/01/20 02:29:54;;;;;;;29.45;15.25;;;1.10;99.90;;;;;;5072542;28;20036;-92
2023/01/20 02:32:30;;;;;;;29.77;14.93;;;1.50;99.90;;;;;;5061285;28;20050;-91
2023/01/20 02:35:02;;;;;;;26.95;13.90;;;1.50;99.90;;;;;;5062815;28;20059;-93
2023/01/20 02:37:37;;;;;;;25.70;14.45;;;1.40;99.90;;;;;;5061247;28;20048;-91
2023/01/20 02:40:29;;;;;;;28.30;14.48;;;1.20;99.90;;;;;;5050294;28;20050;-91
2023/01/20 02:43:15;;;;;;;22.77;12.90;;;1.40;99.90;;;;;;5044791;28;20063;-91
2023/01/20 02:46:16;;;;;;;26.83;13.85;;;1.50;99.90;;;;;;5044589;28;20422;-91
2023/01/20 02:48:50;;;;;;;26.45;13.57;;;1.60;99.90;;;;;;5056375;28;20137;-92
2023/01/20 02:51:24;;;;;;;27.50;14.50;;;1.60;99.90;;;;;;5046516;28;20512;-91
2023/01/20 02:54:03;;;;;;;24.38;14.38;;;1.30;99.90;;;;;;5044518;28;20287;-91
2023/01/20 02:56:30;;;;;;;27.10;14.70;;;1.60;99.90;;;;;;5052519;28;20033;-92
2023/01/20 02:59:14;;;;;;;28.88;15.45;;;1.30;99.90;;;;;;5064787;28;20036;-92
2023/01/20 03:01:41;;;;;;;28.45;14.93;;;1.20;99.90;;;;;;5066209;28;20075;-92
2023/01/20 03:04:10;;;;;;;27.85;15.02;;;1.30;99.90;;;;;;5049325;28;20048;-91
2023/01/20 03:06:41;;;;;;;33.65;17.00;;;1.30;99.90;;;;;;5049868;28;20044;-91
2023/01/20 03:09:14;;;;;;;31.40;15.77;;;1.30;99.90;;;;;;5048108;28;20154;-91
2023/01/20 03:11:46;;;;;;;29.42;15.57;;;1.50;99.90;;;;;;5066260;28;20051;-91
2023/01/20 03:14:14;;;;;;;31.52;16.40;;;1.20;99.90;;;;;;5048545;28;20566;-91
2023/01/20 03:16:40;;;;;;;33.03;15.77;;;1.30;99.90;;;;;;5068352;28;20040;-92
2023/01/20 03:19:06;;;;;;;32.85;17.70;;;1.40;99.90;;;;;;5047359;28;20044;-90
2023/01/20 03:21:35;;;;;;;30.75;17.05;;;1.20;99.90;;;;;;5078212;28;20043;-91
2023/01/20 03:24:03;;;;;;;32.72;17.85;;;1.20;99.90;;;;;;5064652;28;20044;-91
2023/01/20 03:26:32;;;;;;;32.50;17.15;;;1.10;99.90;;;;;;5063707;28;20139;-92
2023/01/20 03:29:05;;;;;;;32.42;17.00;;;1.10;99.90;;;;;;5064713;28;20130;-92
2023/01/20 03:31:36;;;;;;;34.08;17.05;;;1.40;99.90;;;;;;5097549;27;20045;-91
2023/01/20 03:34:09;;;;;;;31.73;17.05;;;1.10;99.90;;;;;;5047457;28;20032;-90
2023/01/20 03:36:37;;;;;;;29.15;16.60;;;1.10;99.90;;;;;;5067006;28;20079;-91
2023/01/20 03:39:04;;;;;;;29.52;16.02;;;1.10;99.90;;;;;;5047925;28;20511;-93
2023/01/20 03:42:06;;;;;;;33.55;16.67;;;1.30;99.90;;;;;;5064624;28;20134;-92
2023/01/20 03:44:42;;;;;;;32.42;16.83;;;1.30;99.90;;;;;;5054840;28;20067;-91
2023/01/20 03:47:20;;;;;;;34.20;17.13;;;1.40;99.90;;;;;;5064655;28;20139;-91
2023/01/20 03:49:55;;;;;;;30.60;15.65;;;1.10;99.90;;;;;;5048266;28;20122;-92
2023/01/20 03:52:27;;;;;;;;;;;1.20;99.90;;;;;;5042451;28;20189;-91
2023/01/20 03:55:03;;;;;;;32.50;16.38;;;1.20;99.90;;;;;;5060532;28;20387;-92
2023/01/20 03:57:37;;;;;;;37.83;17.75;;;1.20;99.90;;;;;;5059941;28;20087;-91
2023/01/20 04:00:07;;;;;;;36.75;18.23;;;1.30;99.90;;;;;;5061147;28;20126;-91
2023/01/20 04:02:34;;;;;;;38.33;18.05;;;1.20;99.90;;;;;;5031193;28;20056;-92
2023/01/20 04:05:01;;;;;;;36.40;18.30;;;1.30;99.90;;;;;;5043024;28;20051;-91
2023/01/20 04:07:30;;;;;;;39.15;17.92;;;1.00;99.90;;;;;;5027666;28;20099;-92
2023/01/20 04:10:02;;;;;;;38.08;17.63;;;1.20;99.90;;;;;;5059062;28;20060;-91
2023/01/20 04:12:28;;;;;;;36.15;17.45;;;1.00;99.90;;;;;;5029759;28;20784;-91
2023/01/20 04:14:54;;;;;;;38.67;17.50;;;1.00;99.90;;;;;;5042900;28;20043;-92
2023/01/20 04:17:19;;;;;;;40.83;17.17;;;1.00;99.90;;;;;;5044005;28;20045;-92
2023/01/20 04:19:45;;;;;;;41.08;18.30;;;1.30;99.90;;;;;;5043191;28;20126;-90
2023/01/20 04:22:19;;;;;;;34.50;16.90;;;1.30;99.90;;;;;;5043909;28;20045;-91
2023/01/20 04:25:00;;;;;;;35.30;16.87;;;1.00;99.90;;;;;;5028121;28;20033;-91
2023/01/20 04:27:25;;;;;;;34.25;16.58;;;1.10;99.90;;;;;;5046620;28;20033;-92
2023/01/20 04:29:51;;;;;;;35.22;16.70;;;1.20;99.90;;;;;;5043887;28;20055;-90
2023/01/20 04:32:23;;;;;;;38.83;16.92;;;1.10;99.90;;;;;;5043982;28;20056;-90
2023/01/20 04:34:52;;;;;;;32.83;15.90;;;1.30;99.90;;;;;;5040829;28;20141;-91
2023/01/20 04:37:18;;;;;;;34.55;15.93;;;1.20;99.90;;;;;;5025306;28;20040;-91
2023/01/20 04:39:43;;;;;;;38.13;16.52;;;1.20;99.90;;;;;;5042597;28;20055;-91
2023/01/20 04:42:10;;;;;;;33.25;15.60;;;1.00;99.90;;;;;;5023651;28;20044;-91
2023/01/20 04:44:39;;;;;;;38.67;16.17;;;1.00;99.90;;;;;;5041718;28;20183;-91
2023/01/20 04:47:05;;;;;;;33.35;16.15;;;1.20;99.90;;;;;;5044963;28;20040;-90
2023/01/20 04:49:31;;;;;;;33.90;16.08;;;1.30;99.90;;;;;;5042119;28;20516;-90
2023/01/20 04:51:56;;;;;;;33.83;16.42;;;1.00;99.90;;;;;;5026220;28;20041;-92
2023/01/20 04:54:22;;;;;;;33.95;16.70;;;1.00;99.90;;;;;;5027315;28;20129;-92
2023/01/20 04:56:48;;;;;;;35.83;17.48;;;1.30;99.90;;;;;;5030918;28;20033;-91
2023/01/20 04:59:20;;;;;;;34.90;16.10;;;1.30;99.90;;;;;;5034381;28;20040;-91
2023/01/20 05:01:45;;;;;;;36.63;17.20;;;1.30;99.90;;;;;;5055560;28;20084;-91
2023/01/20 05:04:11;;;;;;;36.30;16.00;;;1.30;99.90;;;;;;5036871;28;20376;-91
2023/01/20 05:06:37;;;;;;;35.22;15.95;;;1.30;99.90;;;;;;5040880;28;20130;-91
2023/01/20 05:09:03;;;;;;;41.95;17.35;;;1.20;99.90;;;;;;5072148;28;20124;-91
2023/01/20 05:11:28;;;;;;;35.97;16.55;;;1.10;99.90;;;;;;5051790;28;20041;-91
2023/01/20 05:13:54;;;;;;;32.63;15.63;;;1.00;99.90;;;;;;5036444;28;20041;-91
2023/01/20 05:16:24;;;;;;;31.23;15.77;;;1.10;99.90;;;;;;5038209;28;20041;-90
2023/01/20 05:18:50;;;;;;;37.78;17.05;;;1.20;99.90;;;;;;5034629;28;20111;-92
2023/01/20 05:21:16;;;;;;;35.92;15.10;;;1.00;99.90;;;;;;5045815;28;20476;-91
2023/01/20 05:23:41;;;;;;;35.17;15.95;;;1.10;99.90;;;;;;5043021;28;20037;-90
2023/01/20 05:26:07;;;;;;;37.38;16.85;;;1.10;99.90;;;;;;5028172;28;20037;-91
2023/01/20 05:28:33;;;;;;;33.33;15.52;;;1.30;99.90;;;;;;5046661;28;20044;-91
2023/01/20 05:30:59;;;;;;;31.70;15.65;;;1.00;99.90;;;;;;5028638;28;20598;-91
2023/01/20 05:33:27;;;;;;;35.42;16.50;;;1.00;99.90;;;;;;5043263;28;20032;-92
2023/01/20 05:35:53;;;;;;;39.05;16.52;;;1.00;99.90;;;;;;5042289;28;20093;-91
2023/01/20 05:38:19;;;;;;;42.33;16.83;;;1.00;99.90;;;;;;5026101;28;20045;-91
2023/01/20 05:40:44;;;;;;;34.15;16.63;;;1.20;99.90;;;;;;5058339;28;20092;-93
2023/01/20 05:43:10;;;;;;;39.13;16.67;;;1.00;99.90;;;;;;5030109;28;20036;-91
2023/01/20 05:45:35;;;;;;;38.85;17.58;;;1.00;99.90;;;;;;5029106;28;20080;-91
2023/01/20 05:48:02;;;;;;;36.05;16.90;;;1.00;99.90;;;;;;5043420;28;20039;-92
2023/01/20 05:50:28;;;;;;;40.40;17.13;;;1.00;99.90;;;;;;5076447;28;20064;-91
2023/01/20 05:52:54;;;;;;;34.88;16.20;;;1.10;99.90;;;;;;5026140;28;20045;-91
2023/01/20 05:55:20;;;;;;;37.60;17.25;;;1.00;99.90;;;;;;5024345;28;20271;-91
2023/01/20 05:57:46;;;;;;;36.83;16.65;;;1.00;99.90;;;;;;5044506;28;20037;-91
2023/01/20 06:00:13;;;;;;;36.88;16.42;;;1.20;99.90;;;;;;5027720;28;20032;-91
2023/01/20 06:02:39;;;;;;;42.08;18.42;;;1.00;99.90;;;;;;5042846;28;20045;-91
2023/01/20 06:05:06;;;;;;;40.05;17.70;;;1.30;99.90;;;;;;5061755;28;20062;-91
2023/01/20 06:07:32;;;;;;;36.60;17.67;;;1.20;99.90;;;;;;5044011;28;20076;-92
2023/01/20 06:10:01;;;;;;;33.53;16.13;;;1.30;99.90;;;;;;5059895;28;20079;-90
2023/01/20 06:12:27;;;;;;;34.33;17.38;;;1.30;99.90;;;;;;5044635;28;20488;-91
2023/01/20 06:14:52;;;;;;;38.35;18.48;;;1.30;99.90;;;;;;5045839;28;20033;-91
2023/01/20 06:17:18;;;;;;;37.78;17.17;;;1.10;99.90;;;;;;5058324;28;20407;-90
2023/01/20 06:19:44;;;;;;;37.20;17.92;;;1.30;99.90;;;;;;5062301;28;20424;-91
2023/01/20 06:22:15;;;;;;;41.58;18.05;;;1.00;99.90;;;;;;5077002;28;20516;-92
2023/01/20 06:24:40;;;;;;;33.05;16.73;;;1.10;99.90;;;;;;5041526;28;20060;-91
2023/01/20 06:27:06;;;;;;;38.33;17.58;;;1.30;99.90;;;;;;5061683;28;20036;-91
2023/01/20 06:29:32;;;;;;;34.60;18.20;;;1.00;99.90;;;;;;5046352;28;20119;-91
2023/01/20 06:31:57;;;;;;;36.03;16.92;;;1.00;99.90;;;;;;5048380;28;20052;-92
2023/01/20 06:34:23;;;;;;;32.33;16.08;;;1.10;99.90;;;;;;5064386;28;20063;-90
2023/01/20 06:36:49;;;;;;;34.88;17.05;;;1.00;99.90;;;;;;5067090;28;20507;-90
2023/01/20 06:39:14;;;;;;;39.45;18.58;;;1.00;99.90;;;;;;5050471;28;20107;-91
2023/01/20 06:41:40;;;;;;;39.03;17.63;;;1.20;99.90;;;;;;5047686;28;20076;-91
2023/01/20 06:44:09;;;;;;;38.42;17.98;;;1.00;99.90;;;;;;5081302;28;20357;-91
2023/01/20 06:46:34;;;;;;;34.30;16.75;;;1.20;99.90;;;;;;5058236;28;20032;-91
2023/01/20 06:49:00;;;;;;;35.58;16.65;;;1.20;99.90;;;;;;5047715;28;20044;-91
2023/01/20 06:51:28;;;;;;;33.25;17.20;;;1.00;99.90;;;;;;5052378;28;20185;-91
2023/01/20 06:53:54;;;;;;;37.55;17.30;;;1.10;99.90;;;;;;5048061;28;20036;-91
2023/01/20 06:56:23;;;;;;;35.40;17.85;;;1.00;99.90;;;;;;5051029;28;20065;-91
2023/01/20 06:58:49;;;;;;;38.03;17.63;;;1.10;99.90;;;;;;5054504;28;20543;-91
2023/01/20 07:01:22;;;;;;;33.80;17.88;;;1.00;99.90;;;;;;5048641;28;20131;-92
2023/01/20 07:03:47;;;;;;;39.03;18.75;;;0.90;99.90;;;;;;5065236;28;20044;-92
2023/01/20 07:06:40;;;;;;;39.35;18.25;;;0.90;99.90;;;;;;5066648;28;20549;-90
2023/01/20 07:09:09;;;;;;;42.20;17.85;;;1.20;99.90;;;;;;5043314;28;20056;-92
2023/01/20 07:11:35;;;;;;;37.47;18.25;;;1.20;99.90;;;;;;5048770;28;20128;-91
2023/01/20 07:14:01;;;;;;;39.83;19.15;;;1.00;99.90;;;;;;5048743;28;20154;-91
2023/01/20 07:16:27;;;;;;;38.42;19.63;;;1.00;99.90;;;;;;5050462;28;20115;-91
2023/01/20 07:18:56;;;;;;;38.15;18.85;;;1.10;99.90;;;;;;5064674;28;20563;-91
2023/01/20 07:21:22;;;;;;;44.30;20.05;;;1.00;99.90;;;;;;5046668;28;20078;-92
2023/01/20 07:23:51;;;;;;;44.60;20.02;;;1.00;99.90;;;;;;5049288;28;20454;-91
2023/01/20 07:26:19;;;;;;;39.30;18.67;;;1.00;99.90;;;;;;5064687;28;20040;-92
2023/01/20 07:28:46;;;;;;;43.05;20.45;;;1.00;99.90;;;;;;5044820;28;20040;-91
2023/01/20 07:31:21;;;;;;;43.85;20.00;;;1.20;99.90;;;;;;5066771;28;20105;-91
2023/01/20 07:33:47;;;;;;;44.25;21.02;;;1.30;99.90;;;;;;5063983;28;20208;-91
2023/01/20 07:36:14;;;;;;;41.85;20.15;;;1.20;99.90;;;;;;5064182;28;20063;-91
2023/01/20 07:38:40;;;;;;;42.25;20.23;;;1.20;99.90;;;;;;5048190;28;20407;-91
2023/01/20 07:41:14;;;;;;;46.92;20.50;;;1.20;99.90;;;;;;5048434;28;20048;-91
2023/01/20 07:43:41;;;;;;;43.88;20.23;;;1.00;99.90;;;;;;5044877;28;20218;-91
2023/01/20 07:46:07;;;;;;;47.58;21.60;;;1.20;99.90;;;;;;5082550;28;20646;-91
2023/01/20 07:48:33;;;;;;;43.67;21.15;;;1.20;99.90;;;;;;5048766;28;20131;-91
2023/01/20 07:51:05;;;;;;;44.10;20.92;;;1.00;99.90;;;;;;5049594;28;20215;-91
2023/01/20 07:53:35;;;;;;;44.35;20.98;;;1.00;99.90;;;;;;5047933;28;20523;-91
2023/01/20 07:56:10;;;;;;;42.20;20.77;;;1.10;99.90;;;;;;5048187;28;20043;-91
2023/01/20 07:58:36;;;;;;;44.83;20.38;;;1.30;99.90;;;;;;5048725;28;20052;-92
2023/01/20 08:01:06;;;;;;;46.40;20.98;;;1.20;99.90;;;;;;5060188;28;20411;-90
2023/01/20 08:03:35;;;;;;;45.33;20.65;;;1.20;99.90;;;;;;5045502;28;20502;-91
2023/01/20 08:06:06;;;;;;;49.83;21.98;;;1.00;99.90;;;;;;5049304;28;20081;-90
2023/01/20 08:08:32;;;;;;;45.88;21.70;;;1.20;99.90;;;;;;5032216;28;20502;-90
2023/01/20 08:11:00;;;;;;;44.65;21.00;;;1.10;99.90;;;;;;5027596;28;20563;-91
2023/01/20 08:13:29;;;;;;;46.53;20.77;;;1.10;99.90;;;;;;5080437;28;20036;-91
2023/01/20 08:15:58;;;;;;;39.30;21.38;;;1.20;99.90;;;;;;5044459;28;20196;-91
2023/01/20 08:18:24;;;;;;;44.53;22.92;;;1.10;99.90;;;;;;5028224;28;20125;-91
2023/01/20 08:20:49;;;;;;;41.80;20.95;;;1.20;99.90;;;;;;5027236;28;20463;-91
2023/01/20 08:23:15;;;;;;;41.88;20.88;;;1.20;99.90;;;;;;5027338;28;20052;-92
2023/01/20 08:25:44;;;;;;;39.63;20.88;;;1.20;99.90;;;;;;5042023;28;20044;-91
2023/01/20 08:28:09;;;;;;;42.15;21.00;;;1.30;99.90;;;;;;5044564;28;20583;-90
2023/01/20 08:30:35;;;;;;;43.53;22.00;;;1.40;99.90;;;;;;5042589;28;20037;-90
2023/01/20 08:33:01;;;;;;;41.08;22.38;;;1.30;99.90;;;;;;5043283;28;20399;-90
2023/01/20 08:35:27;;;;;;;41.05;21.38;;;1.20;99.90;;;;;;5027550;28;20120;-89
2023/01/20 08:37:53;;;;;;;45.25;21.88;;;1.40;99.90;;;;;;5027775;28;20048;-90
2023/01/20 08:40:18;;;;;;;45.38;21.17;;;1.30;99.90;;;;;;5025785;28;20048;-90
2023/01/20 08:42:45;;;;;;;43.05;22.08;;;1.20;99.90;;;;;;5041280;28;20044;-89
2023/01/20 08:45:11;;;;;;;50.10;23.42;;;1.30;99.90;;;;;;5045760;28;20342;-90
2023/01/20 08:47:38;;;;;;;46.72;23.00;;;1.20;99.90;;;;;;5025994;28;20377;-89
2023/01/20 08:50:05;;;;;;;43.92;22.70;;;1.30;99.90;;;;;;5026804;28;20032;-90
2023/01/20 08:52:31;;;;;;;40.00;21.70;;;1.40;99.90;;;;;;5027370;28;20118;-89
2023/01/20 08:54:57;;;;;;;42.92;21.38;;;1.30;99.90;;;;;;5042384;28;20047;-89
2023/01/20 08:57:26;;;;;;;44.25;22.63;;;1.50;99.90;;;;;;5041838;28;20427;-89
2023/01/20 08:59:53;;;;;;;48.97;23.80;;;1.50;99.90;;;;;;5059559;28;20149;-89
2023/01/20 09:02:23;;;;;;;46.00;23.08;;;1.50;99.90;;;;;;5057290;28;20641;-89
2023/01/20 09:04:49;;;;;;;46.08;22.40;;;1.40;99.90;;;;;;5059498;28;20067;-89
2023/01/20 09:07:18;;;;;;;45.28;21.58;;;1.40;99.90;;;;;;5063555;28;20032;-89
2023/01/20 09:09:44;;;;;;;45.95;22.17;;;1.40;99.90;;;;;;5046011;28;20048;-90
2023/01/20 09:12:10;;;;;;;42.92;21.48;;;1.50;99.90;;;;;;5061565;28;20182;-90
2023/01/20 09:14:36;;;;;;;42.28;21.98;;;1.40;99.90;;;;;;5060781;28;20039;-89
2023/01/20 09:17:02;;;;;;;46.40;23.63;;;1.50;99.90;;;;;;5044752;28;20383;-89
2023/01/20 09:19:31;;;;;;;48.75;23.63;;;1.50;99.90;;;;;;5062070;28;20383;-89
2023/01/20 09:21:59;;;;;;;44.75;22.45;;;1.40;99.90;;;;;;5056995;28;20052;-89
2023/01/20 09:24:25;;;;;;;47.30;23.17;;;1.50;99.90;;;;;;5061389;28;20297;-90
2023/01/20 09:26:51;;;;;;;47.08;21.67;;;1.70;99.90;;;;;;5061348;28;20122;-89
2023/01/20 09:29:19;;;;;;;45.42;21.00;;;1.50;99.90;;;;;;5061138;28;20044;-89
2023/01/20 09:31:57;;;;;;;40.85;21.45;;;1.60;99.90;;;;;;5047346;28;20133;-89
2023/01/20 09:34:25;;;;;;;43.85;21.15;;;1.50;99.90;;;;;;5059170;28;20491;-89
2023/01/20 09:36:55;;;;;;;41.00;20.90;;;1.50;99.90;;;;;;5044425;28;20037;-89
2023/01/20 09:45:23;;;;;;;41.05;21.20;;;1.50;99.90;;;;;;5062447;28;20076;-89
2023/01/20 09:47:49;;;;;;;47.17;22.38;;;1.50;99.90;;;;;;5044719;28;20044;-89
2023/01/20 09:53:19;;;;;;;45.00;21.70;;;1.60;99.90;;;;;;5060517;28;20076;-89
2023/01/20 09:56:01;;;;;;;51.13;22.65;;;1.60;99.90;;;;;;5062206;28;20040;-89
2023/01/20 09:58:54;;;;;;;51.05;22.90;;;1.60;99.90;;;;;;5044016;28;20033;-90
2023/01/20 10:01:29;;;;;;;47.25;22.75;;;1.60;99.90;;;;;;5044659;28;20450;-89
2023/01/20 10:04:19;;;;;;;54.20;23.08;;;1.50;99.90;;;;;;5061418;28;20060;-89
2023/01/20 10:06:52;;;;;;;46.85;22.25;;;1.70;99.90;;;;;;5044933;28;20043;-90
2023/01/20 10:09:44;;;;;;;47.55;22.70;;;1.80;99.90;;;;;;5043179;28;20048;-90
2023/01/20 10:12:19;;;;;;;43.85;21.55;;;1.80;99.90;;;;;;5043550;28;20622;-90
2023/01/20 10:14:59;;;;;;;48.60;23.77;;;1.70;99.90;;;;;;5044544;28;20040;-88
2023/01/20 10:17:33;;;;;;;50.58;22.92;;;1.70;99.90;;;;;;5060590;28;20037;-90
2023/01/20 10:20:14;;;;;;;49.83;21.63;;;1.70;99.90;;;;;;5045060;28;20033;-90
2023/01/20 10:22:47;;;;;;;47.95;23.23;;;1.60;99.90;;;;;;5061829;28;20322;-90
2023/01/20 10:25:26;;;;;;;46.22;22.23;;;1.60;99.90;;;;;;5061142;28;20331;-90
2023/01/20 10:28:02;;;;;;;46.03;22.35;;;1.70;99.90;;;;;;5076935;28;20029;-90
2023/01/20 10:30:35;;;;;;;47.92;23.60;;;1.70;99.90;;;;;;5060232;28;20028;-90
2023/01/20 10:33:11;;;;;;;43.90;20.17;;;1.70;99.90;;;;;;5059355;28;20036;-90
2023/01/20 10:35:42;;;;;;;44.45;22.10;;;1.60;99.90;;;;;;5060653;28;20921;-90
2023/01/20 10:38:18;;;;;;;45.63;21.83;;;1.70;99.90;;;;;;5061908;28;20044;-90
2023/01/20 10:40:54;;;;;;;48.05;22.30;;;1.60;99.90;;;;;;5060903;28;20048;-89
2023/01/20 10:43:20;;;;;;;44.45;21.75;;;1.60;99.90;;;;;;5062173;28;20324;-90
2023/01/20 10:46:03;;;;;;;49.97;23.15;;;1.60;99.90;;;;;;5063823;28;20117;-89
2023/01/20 10:48:55;;;;;;;43.28;21.95;;;1.70;99.90;;;;;;5062491;28;20032;-89
2023/01/20 10:52:03;;;;;;;45.05;22.33;;;1.80;99.90;;;;;;5060177;28;20627;-90
2023/01/20 10:54:47;;;;;;;50.58;22.90;;;1.90;99.90;;;;;;5038365;28;20051;-90
2023/01/20 10:57:14;;;;;;;46.03;22.25;;;1.80;99.90;;;;;;5061233;28;20032;-89
2023/01/20 10:59:44;;;;;;;44.40;22.08;;;1.80;99.90;;;;;;5044982;28;20508;-90
2023/01/20 11:02:27;;;;;;;46.03;22.67;;;1.80;99.90;;;;;;5033171;28;20048;-90
2023/01/20 11:05:01;;;;;;;47.83;21.55;;;1.80;99.90;;;;;;5041123;28;20524;-90
2023/01/20 11:07:31;;;;;;;46.17;20.73;;;1.90;99.90;;;;;;5026037;28;20041;-90
2023/01/20 11:10:04;;;;;;;47.10;21.27;;;1.90;99.90;;;;;;5041134;28;20354;-90
2023/01/20 11:12:34;;;;;;;42.42;21.85;;;1.90;99.90;;;;;;5022970;28;20076;-90
2023/01/20 11:15:13;;;;;;;47.42;21.80;;;1.90;99.90;;;;;;5062714;28;20608;-90
2023/01/20 11:17:38;;;;;;;43.30;20.27;;;1.90;99.90;;;;;;5048762;28;20056;-91
2023/01/20 11:20:05;;;;;;;42.63;20.02;;;1.90;99.90;;;;;;5029184;28;20036;-90
2023/01/20 11:22:34;;;;;;;43.40;20.67;;;2.00;99.90;;;;;;5047015;28;20451;-90
2023/01/20 11:25:02;;;;;;;40.85;19.10;;;2.00;99.90;;;;;;5044395;28;20041;-90
2023/01/20 11:27:51;;;;;;;44.35;20.35;;;1.90;99.90;;;;;;5045857;28;20045;-91
2023/01/20 11:30:29;;;;;;;44.60;20.98;;;2.10;99.90;;;;;;5033984;28;20349;-91
2023/01/20 11:33:20;;;;;;;45.30;20.50;;;2.10;99.90;;;;;;5065512;28;20087;-90
2023/01/20 11:36:04;;;;;;;42.30;19.55;;;2.00;99.90;;;;;;5051515;28;20033;-91
2023/01/20 11:38:41;;;;;;;40.88;19.50;;;2.10;99.90;;;;;;5046072;28;20068;-90
2023/01/20 11:41:18;;;;;;;43.38;20.33;;;2.10;99.90;;;;;;5045787;28;20210;-90
2023/01/20 11:43:45;;;;;;;41.55;20.88;;;2.00;99.90;;;;;;5063087;28;20047;-90
2023/01/20 11:46:18;;;;;;;42.33;21.27;;;2.00;99.90;;;;;;5046457;28;20059;-89
2023/01/20 11:48:45;;;;;;;44.17;20.63;;;2.10;99.90;;;;;;5027986;28;20041;-90
2023/01/20 11:51:20;;;;;;;42.50;20.73;;;2.10;99.90;;;;;;5044261;28;20083;-90
2023/01/20 11:53:47;;;;;;;43.97;20.60;;;2.00;99.90;;;;;;5050630;28;20133;-90
2023/01/20 11:56:25;;;;;;;42.58;20.55;;;2.00;99.90;;;;;;5026860;28;20047;-90
2023/01/20 11:59:03;;;;;;;47.75;22.05;;;2.00;99.90;;;;;;5043382;28;20518;-90
2023/01/20 12:01:48;;;;;;;47.25;21.23;;;2.10;99.90;;;;;;5034923;28;20061;-90
2023/01/20 12:04:19;;;;;;;44.03;21.40;;;2.10;99.90;;;;;;5045574;28;20487;-90
2023/01/20 12:07:06;;;;;;;43.20;20.70;;;2.10;99.90;;;;;;5046568;28;20411;-90
2023/01/20 12:09:42;;;;;;;44.65;21.05;;;2.00;99.90;;;;;;5063136;28;20052;-90
2023/01/20 12:12:14;;;;;;;41.38;20.83;;;2.10;99.90;;;;;;5046432;28;20041;-90
2023/01/20 12:14:54;;;;;;;40.22;21.05;;;2.00;99.90;;;;;;5066440;28;20120;-90
2023/01/20 12:17:40;;;;;;;39.92;19.25;;;1.90;99.90;;;;;;5060817;28;20515;-90
2023/01/20 12:20:43;;;;;;;44.20;20.38;;;2.00;99.90;;;;;;5078856;28;20033;-90
2023/01/20 12:23:09;;;;;;;33.80;18.33;;;2.00;99.90;;;;;;5043788;28;20051;-90
2023/01/20 12:25:49;;;;;;;40.63;20.08;;;2.00;99.90;;;;;;5046236;28;20045;-90
2023/01/20 12:28:40;;;;;;;40.40;19.30;;;2.00;99.90;;;;;;5061480;28;20051;-90
2023/01/20 12:31:09;;;;;;;41.03;20.40;;;2.00;99.90;;;;;;5078199;28;20052;-89
2023/01/20 12:33:48;;;;;;;35.88;18.80;;;2.00;99.90;;;;;;5060876;28;20098;-90
2023/01/20 12:36:16;;;;;;;39.85;19.35;;;1.90;99.90;;;;;;5063351;28;20406;-90
2023/01/20 12:39:08;;;;;;;38.58;18.58;;;2.00;99.90;;;;;;5044712;28;20135;-90
2023/01/20 12:41:51;;;;;;;38.13;18.90;;;1.90;99.90;;;;;;5062360;28;20056;-90
2023/01/20 12:44:30;;;;;;;37.80;18.33;;;2.00;99.90;;;;;;5045478;28;20449;-90
2023/01/20 12:47:17;;;;;;;34.67;19.05;;;1.90;99.90;;;;;;5061782;28;20106;-90
2023/01/20 12:50:17;;;;;;;36.17;17.88;;;2.00;99.90;;;;;;5063836;28;20044;-90
2023/01/20 12:52:46;;;;;;;38.72;18.95;;;2.00;99.90;;;;;;5060686;28;20036;-90
2023/01/20 12:55:15;;;;;;;40.35;18.83;;;2.00;99.90;;;;;;5060383;28;20044;-90
2023/01/20 12:57:51;;;;;;;39.78;19.20;;;2.00;99.90;;;;;;5061500;28;20648;-91
2023/01/20 13:00:22;;;;;;;40.60;18.92;;;2.00;99.90;;;;;;5077298;28;20043;-91
2023/01/20 13:03:01;;;;;;;38.75;18.83;;;2.10;99.90;;;;;;5060053;28;20072;-90
2023/01/20 13:06:00;;;;;;;36.55;17.88;;;2.10;99.90;;;;;;5060646;28;20044;-89